This is the latest recevied weather packets stored in our database for station/object OK2KJT-11. If no packets are shown the sender has not sent any weather packets the latest 10 day(s).
| Time | Temp. | Humidity | Pressure | Rain* | Wind** | Luminosity | Snow |
|---|---|---|---|---|---|---|---|
| 1787853161 | 17.78° C | 62% | 1021.4 hPa | - | - | - | - |
| 1787852562 | 18.33° C | 61% | 1021.4 hPa | - | - | - | - |
| 1787851961 | 18.33° C | 60% | 1021.4 hPa | - | - | - | - |
| 1787851362 | 18.89° C | 58% | 1021.4 hPa | - | - | - | - |
| 1787850762 | 20° C | 56% | 1021.4 hPa | - | - | - | - |
| 1787850161 | 20.56° C | 54% | 1021.3 hPa | - | - | - | - |
| 1787849561 | 21.11° C | 52% | 1021.3 hPa | - | - | - | - |
| 1787848962 | 22.22° C | 50% | 1021.3 hPa | - | - | - | - |
| 1787848362 | 22.78° C | 50% | 1021.3 hPa | - | - | - | - |
| 1787847762 | 23.33° C | 49% | 1021.4 hPa | - | - | - | - |
| 1787847163 | 23.33° C | 47% | 1021.4 hPa | - | - | - | - |
| 1787846562 | 23.89° C | 47% | 1021.4 hPa | - | - | - | - |
| 1787845963 | 24.44° C | 47% | 1021.5 hPa | - | - | - | - |
| 1787845363 | 24.44° C | 46% | 1021.7 hPa | - | - | - | - |
| 1787844764 | 24.44° C | 45% | 1021.6 hPa | - | - | - | - |
| 1787844164 | 25° C | 44% | 1021.6 hPa | - | - | - | - |
| 1787843564 | 25° C | 45% | 1021.6 hPa | - | - | - | - |
| 1787842964 | 24.44° C | 47% | 1021.5 hPa | - | - | - | - |
| 1787842364 | 23.89° C | 46% | 1021.6 hPa | - | - | - | - |
| 1787841765 | 25° C | 45% | 1021.7 hPa | - | - | - | - |
| 1787841164 | 23.89° C | 50% | 1021.7 hPa | - | - | - | - |
| 1787840564 | 23.33° C | 50% | 1021.8 hPa | - | - | - | - |
| 1787839965 | 23.89° C | 49% | 1021.8 hPa | - | - | - | - |
| 1787839365 | 23.89° C | 48% | 1021.7 hPa | - | - | - | - |
| 1787838765 | 24.44° C | 45% | 1021.7 hPa | - | - | - | - |
* Rain since midnight (hover to see other rain measurements)
** Current wind speed in m/s (hover to see current wind gust speed)